sensor_id;sensor_type;location;lat;lon;timestamp;pressure;altitude;pressure_sealevel;temperature
49785;BMP280;35679;38.732;-121.358;2022-07-10T00:01:13;101313.19;;;29.80
49785;BMP280;35679;38.732;-121.358;2022-07-10T00:04:05;101304.25;;;29.70
49785;BMP280;35679;38.732;-121.358;2022-07-10T00:06:56;101304.22;;;29.75
49785;BMP280;35679;38.732;-121.358;2022-07-10T00:09:47;101299.84;;;29.84
49785;BMP280;35679;38.732;-121.358;2022-07-10T00:12:38;101294.72;;;29.72
49785;BMP280;35679;38.732;-121.358;2022-07-10T00:15:29;101296.91;;;29.65
49785;BMP280;35679;38.732;-121.358;2022-07-10T00:18:21;101296.69;;;29.57
49785;BMP280;35679;38.732;-121.358;2022-07-10T00:21:12;101289.38;;;29.47
49785;BMP280;35679;38.732;-121.358;2022-07-10T00:24:02;101289.94;;;29.39
49785;BMP280;35679;38.732;-121.358;2022-07-10T00:26:53;101287.22;;;29.39
49785;BMP280;35679;38.732;-121.358;2022-07-10T00:29:44;101284.50;;;29.34
49785;BMP280;35679;38.732;-121.358;2022-07-10T00:32:36;101278.78;;;29.31
49785;BMP280;35679;38.732;-121.358;2022-07-10T00:35:27;101282.34;;;29.26
49785;BMP280;35679;38.732;-121.358;2022-07-10T00:38:18;101281.00;;;29.24
49785;BMP280;35679;38.732;-121.358;2022-07-10T00:41:09;101276.91;;;29.21
49785;BMP280;35679;38.732;-121.358;2022-07-10T00:44:01;101271.47;;;29.21
49785;BMP280;35679;38.732;-121.358;2022-07-10T00:46:52;101275.28;;;29.20
49785;BMP280;35679;38.732;-121.358;2022-07-10T00:49:44;101263.06;;;29.18
49785;BMP280;35679;38.732;-121.358;2022-07-10T00:52:36;101273.66;;;29.19
49785;BMP280;35679;38.732;-121.358;2022-07-10T00:55:28;101265.50;;;29.19
49785;BMP280;35679;38.732;-121.358;2022-07-10T00:58:20;101263.34;;;29.17
49785;BMP280;35679;38.732;-121.358;2022-07-10T01:01:12;101264.69;;;29.19
49785;BMP280;35679;38.732;-121.358;2022-07-10T01:04:02;101257.91;;;29.17
49785;BMP280;35679;38.732;-121.358;2022-07-10T01:06:53;101257.63;;;29.18
49785;BMP280;35679;38.732;-121.358;2022-07-10T01:09:44;101257.91;;;29.17
49785;BMP280;35679;38.732;-121.358;2022-07-10T01:12:37;101255.44;;;29.15
49785;BMP280;35679;38.732;-121.358;2022-07-10T01:15:27;101245.41;;;29.16
49785;BMP280;35679;38.732;-121.358;2022-07-10T01:18:19;101251.63;;;29.16
49785;BMP280;35679;38.732;-121.358;2022-07-10T01:21:35;101247.28;;;29.15
49785;BMP280;35679;38.732;-121.358;2022-07-10T01:24:26;101249.47;;;29.13
49785;BMP280;35679;38.732;-121.358;2022-07-10T01:27:17;101246.47;;;29.15
49785;BMP280;35679;38.732;-121.358;2022-07-10T01:30:08;101251.91;;;29.15
49785;BMP280;35679;38.732;-121.358;2022-07-10T01:32:59;101252.19;;;29.13
49785;BMP280;35679;38.732;-121.358;2022-07-10T01:35:50;101240.50;;;29.13
49785;BMP280;35679;38.732;-121.358;2022-07-10T01:38:41;101250.28;;;29.14
49785;BMP280;35679;38.732;-121.358;2022-07-10T01:41:32;101245.94;;;29.13
49785;BMP280;35679;38.732;-121.358;2022-07-10T01:44:23;101252.19;;;29.13
49785;BMP280;35679;38.732;-121.358;2022-07-10T01:47:14;101248.66;;;29.13
49785;BMP280;35679;38.732;-121.358;2022-07-10T01:50:14;101248.66;;;29.13
49785;BMP280;35679;38.732;-121.358;2022-07-10T01:53:08;101245.94;;;29.13
49785;BMP280;35679;38.732;-121.358;2022-07-10T01:56:00;101249.75;;;29.12
49785;BMP280;35679;38.732;-121.358;2022-07-10T01:58:53;101241.31;;;29.13
49785;BMP280;35679;38.732;-121.358;2022-07-10T02:01:43;101247.06;;;29.12
49785;BMP280;35679;38.732;-121.358;2022-07-10T02:04:34;101247.56;;;29.14
49785;BMP280;35679;38.732;-121.358;2022-07-10T02:07:34;101251.38;;;29.13
49785;BMP280;35679;38.732;-121.358;2022-07-10T02:10:27;101239.69;;;29.12
49785;BMP280;35679;38.732;-121.358;2022-07-10T02:13:16;101245.94;;;29.13
49785;BMP280;35679;38.732;-121.358;2022-07-10T02:16:10;101240.25;;;29.14
49785;BMP280;35679;38.732;-121.358;2022-07-10T02:19:02;101238.91;;;29.12
49785;BMP280;35679;38.732;-121.358;2022-07-10T02:21:57;101240.50;;;29.13
49785;BMP280;35679;38.732;-121.358;2022-07-10T02:24:49;101233.47;;;29.12
49785;BMP280;35679;38.732;-121.358;2022-07-10T02:27:39;101234.53;;;29.11
49785;BMP280;35679;38.732;-121.358;2022-07-10T02:30:31;101240.78;;;29.11
49785;BMP280;35679;38.732;-121.358;2022-07-10T02:33:24;101242.69;;;29.11
49785;BMP280;35679;38.732;-121.358;2022-07-10T02:36:16;101241.06;;;29.10
49785;BMP280;35679;38.732;-121.358;2022-07-10T02:39:08;101242.94;;;29.09
49785;BMP280;35679;38.732;-121.358;2022-07-10T02:41:59;101244.06;;;29.08
49785;BMP280;35679;38.732;-121.358;2022-07-10T02:44:50;101237.00;;;29.07
49785;BMP280;35679;38.732;-121.358;2022-07-10T02:47:41;101244.31;;;29.07
49785;BMP280;35679;38.732;-121.358;2022-07-10T02:50:31;101244.31;;;29.07
49785;BMP280;35679;38.732;-121.358;2022-07-10T02:53:22;101240.78;;;29.06
49785;BMP280;35679;38.732;-121.358;2022-07-10T02:56:14;101246.22;;;29.06
49785;BMP280;35679;38.732;-121.358;2022-07-10T02:59:04;101244.59;;;29.05
49785;BMP280;35679;38.732;-121.358;2022-07-10T03:01:56;101245.44;;;29.06
49785;BMP280;35679;38.732;-121.358;2022-07-10T03:04:47;101243.78;;;29.05
49785;BMP280;35679;38.732;-121.358;2022-07-10T03:07:38;101250.31;;;29.04
49785;BMP280;35679;38.732;-121.358;2022-07-10T03:10:29;101245.97;;;29.03
49785;BMP280;35679;38.732;-121.358;2022-07-10T03:13:20;101252.47;;;29.02
49785;BMP280;35679;38.732;-121.358;2022-07-10T03:16:11;101250.88;;;29.01
49785;BMP280;35679;38.732;-121.358;2022-07-10T03:19:01;101252.75;;;29.00
49785;BMP280;35679;38.732;-121.358;2022-07-10T03:21:51;101248.41;;;28.99
49785;BMP280;35679;38.732;-121.358;2022-07-10T03:24:42;101254.13;;;28.98
49785;BMP280;35679;38.732;-121.358;2022-07-10T03:27:36;101252.50;;;28.97
49785;BMP280;35679;38.732;-121.358;2022-07-10T03:30:27;101256.56;;;28.94
49785;BMP280;35679;38.732;-121.358;2022-07-10T03:33:18;101252.25;;;28.93
49785;BMP280;35679;38.732;-121.358;2022-07-10T03:36:13;101251.69;;;28.91
49785;BMP280;35679;38.732;-121.358;2022-07-10T03:39:05;101244.91;;;28.89
49785;BMP280;35679;38.732;-121.358;2022-07-10T03:41:57;101254.41;;;28.91
49785;BMP280;35679;38.732;-121.358;2022-07-10T03:44:50;101264.47;;;28.91
49785;BMP280;35679;38.732;-121.358;2022-07-10T03:47:40;101262.84;;;28.80
49785;BMP280;35679;38.732;-121.358;2022-07-10T03:50:31;101260.16;;;28.75
49785;BMP280;35679;38.732;-121.358;2022-07-10T03:53:21;101253.84;;;28.74
49785;BMP280;35679;38.732;-121.358;2022-07-10T03:56:12;101249.28;;;28.75
49785;BMP280;35679;38.732;-121.358;2022-07-10T03:59:25;101263.91;;;28.74
49785;BMP280;35679;38.732;-121.358;2022-07-10T04:02:17;101259.56;;;28.73
49785;BMP280;35679;38.732;-121.358;2022-07-10T04:05:08;101253.56;;;28.71
49785;BMP280;35679;38.732;-121.358;2022-07-10T04:08:01;101263.63;;;28.70
49785;BMP280;35679;38.732;-121.358;2022-07-10T04:10:53;101263.09;;;28.68
49785;BMP280;35679;38.732;-121.358;2022-07-10T04:13:43;101269.63;;;28.67
49785;BMP280;35679;38.732;-121.358;2022-07-10T04:16:33;101268.00;;;28.66
49785;BMP280;35679;38.732;-121.358;2022-07-10T04:19:23;101271.00;;;28.65
49785;BMP280;35679;38.732;-121.358;2022-07-10T04:22:13;101266.09;;;28.62
49785;BMP280;35679;38.732;-121.358;2022-07-10T04:25:04;101283.19;;;28.62
49785;BMP280;35679;38.732;-121.358;2022-07-10T04:27:56;101274.50;;;28.60
49785;BMP280;35679;38.732;-121.358;2022-07-10T04:30:47;101274.22;;;28.57
49785;BMP280;35679;38.732;-121.358;2022-07-10T04:33:38;101278.03;;;28.56
49785;BMP280;35679;38.732;-121.358;2022-07-10T04:36:29;101292.69;;;28.55
49785;BMP280;35679;38.732;-121.358;2022-07-10T04:39:21;101294.88;;;28.53
49785;BMP280;35679;38.732;-121.358;2022-07-10T04:42:12;101297.03;;;28.51
49785;BMP280;35679;38.732;-121.358;2022-07-10T04:45:02;101299.22;;;28.49
49785;BMP280;35679;38.732;-121.358;2022-07-10T04:47:51;101298.66;;;28.47
49785;BMP280;35679;38.732;-121.358;2022-07-10T04:50:42;101296.22;;;28.46
49785;BMP280;35679;38.732;-121.358;2022-07-10T04:53:32;101303.00;;;28.43
49785;BMP280;35679;38.732;-121.358;2022-07-10T04:56:26;101300.81;;;28.40
49785;BMP280;35679;38.732;-121.358;2022-07-10T04:59:17;101303.81;;;28.39
49785;BMP280;35679;38.732;-121.358;2022-07-10T05:02:07;101313.03;;;28.38
49785;BMP280;35679;38.732;-121.358;2022-07-10T05:04:58;101313.31;;;28.36
49785;BMP280;35679;38.732;-121.358;2022-07-10T05:07:49;101319.81;;;28.35
49785;BMP280;35679;38.732;-121.358;2022-07-10T05:10:39;101320.88;;;28.34
49785;BMP280;35679;38.732;-121.358;2022-07-10T05:13:30;101333.38;;;28.30
49785;BMP280;35679;38.732;-121.358;2022-07-10T05:16:20;101330.94;;;28.29
49785;BMP280;35679;38.732;-121.358;2022-07-10T05:19:11;101339.34;;;28.27
49785;BMP280;35679;38.732;-121.358;2022-07-10T05:22:03;101335.28;;;28.25
49785;BMP280;35679;38.732;-121.358;2022-07-10T05:24:54;101337.44;;;28.23
49785;BMP280;35679;38.732;-121.358;2022-07-10T05:27:45;101337.69;;;28.21
49785;BMP280;35679;38.732;-121.358;2022-07-10T05:30:40;101341.78;;;28.19
49785;BMP280;35679;38.732;-121.358;2022-07-10T05:33:30;101340.38;;;28.16
49785;BMP280;35679;38.732;-121.358;2022-07-10T05:36:22;101339.00;;;28.14
49785;BMP280;35679;38.732;-121.358;2022-07-10T05:39:14;101333.03;;;28.12
49785;BMP280;35679;38.732;-121.358;2022-07-10T05:42:05;101334.09;;;28.11
49785;BMP280;35679;38.732;-121.358;2022-07-10T05:44:59;101335.44;;;28.08
49785;BMP280;35679;38.732;-121.358;2022-07-10T05:47:50;101336.00;;;28.05
49785;BMP280;35679;38.732;-121.358;2022-07-10T05:50:41;101343.34;;;28.05
49785;BMP280;35679;38.732;-121.358;2022-07-10T05:53:34;101352.81;;;28.02
49785;BMP280;35679;38.732;-121.358;2022-07-10T05:56:25;101351.47;;;28.00
49785;BMP280;35679;38.732;-121.358;2022-07-10T05:59:16;101351.69;;;27.98
49785;BMP280;35679;38.732;-121.358;2022-07-10T06:02:08;101357.66;;;27.95
49785;BMP280;35679;38.732;-121.358;2022-07-10T06:04:59;101353.31;;;27.94
49785;BMP280;35679;38.732;-121.358;2022-07-10T06:07:50;101358.19;;;27.92
49785;BMP280;35679;38.732;-121.358;2022-07-10T06:10:41;101351.66;;;27.88
49785;BMP280;35679;38.732;-121.358;2022-07-10T06:13:34;101362.50;;;27.88
49785;BMP280;35679;38.732;-121.358;2022-07-10T06:16:25;101362.22;;;27.85
49785;BMP280;35679;38.732;-121.358;2022-07-10T06:19:17;101365.19;;;27.83
49785;BMP280;35679;38.732;-121.358;2022-07-10T06:22:10;101362.75;;;27.82
49785;BMP280;35679;38.732;-121.358;2022-07-10T06:25:19;101360.31;;;27.81
49785;BMP280;35679;38.732;-121.358;2022-07-10T06:28:10;101356.25;;;27.78
49785;BMP280;35679;38.732;-121.358;2022-07-10T06:31:00;101359.22;;;27.77
49785;BMP280;35679;38.732;-121.358;2022-07-10T06:33:51;101353.22;;;27.75
49785;BMP280;35679;38.732;-121.358;2022-07-10T06:36:43;101366.22;;;27.73
49785;BMP280;35679;38.732;-121.358;2022-07-10T06:39:34;101364.84;;;27.70
49785;BMP280;35679;38.732;-121.358;2022-07-10T06:42:24;101367.03;;;27.68
49785;BMP280;35679;38.732;-121.358;2022-07-10T06:45:19;101373.81;;;27.66
49785;BMP280;35679;38.732;-121.358;2022-07-10T06:48:10;101365.09;;;27.64
49785;BMP280;35679;38.732;-121.358;2022-07-10T06:51:00;101372.44;;;27.63
49785;BMP280;35679;38.732;-121.358;2022-07-10T06:53:52;101370.22;;;27.60
49785;BMP280;35679;38.732;-121.358;2022-07-10T06:56:43;101369.91;;;27.57
49785;BMP280;35679;38.732;-121.358;2022-07-10T06:59:33;101373.72;;;27.56
49785;BMP280;35679;38.732;-121.358;2022-07-10T07:02:24;101366.34;;;27.51
49785;BMP280;35679;38.732;-121.358;2022-07-10T07:05:17;101365.56;;;27.51
49785;BMP280;35679;38.732;-121.358;2022-07-10T07:08:08;101366.84;;;27.48
49785;BMP280;35679;38.732;-121.358;2022-07-10T07:11:00;101379.88;;;27.46
49785;BMP280;35679;38.732;-121.358;2022-07-10T07:13:51;101381.22;;;27.44
49785;BMP280;35679;38.732;-121.358;2022-07-10T07:16:42;101376.06;;;27.42
49785;BMP280;35679;38.732;-121.358;2022-07-10T07:19:35;101370.34;;;27.39
49785;BMP280;35679;38.732;-121.358;2022-07-10T07:22:46;101370.03;;;27.35
49785;BMP280;35679;38.732;-121.358;2022-07-10T07:25:55;101373.56;;;27.36
49785;BMP280;35679;38.732;-121.358;2022-07-10T07:28:48;101373.53;;;27.31
49785;BMP280;35679;38.732;-121.358;2022-07-10T07:31:38;101376.78;;;27.28
49785;BMP280;35679;38.732;-121.358;2022-07-10T07:34:29;101374.31;;;27.26
49785;BMP280;35679;38.732;-121.358;2022-07-10T07:37:21;101368.34;;;27.24
49785;BMP280;35679;38.732;-121.358;2022-07-10T07:40:13;101364.53;;;27.20
49785;BMP280;35679;38.732;-121.358;2022-07-10T07:43:08;101365.59;;;27.19
49785;BMP280;35679;38.732;-121.358;2022-07-10T07:45:58;101369.63;;;27.17
49785;BMP280;35679;38.732;-121.358;2022-07-10T07:48:49;101364.75;;;27.14
49785;BMP280;35679;38.732;-121.358;2022-07-10T07:51:40;101373.38;;;27.11
49785;BMP280;35679;38.732;-121.358;2022-07-10T07:54:31;101368.22;;;27.10
49785;BMP280;35679;38.732;-121.358;2022-07-10T07:57:22;101369.56;;;27.07
49785;BMP280;35679;38.732;-121.358;2022-07-10T08:00:14;101370.09;;;27.04
49785;BMP280;35679;38.732;-121.358;2022-07-10T08:03:07;101372.22;;;27.02
49785;BMP280;35679;38.732;-121.358;2022-07-10T08:05:58;101373.56;;;27.00
49785;BMP280;35679;38.732;-121.358;2022-07-10T08:08:53;101368.41;;;26.98
49785;BMP280;35679;38.732;-121.358;2022-07-10T08:11:43;101364.53;;;26.94
49785;BMP280;35679;38.732;-121.358;2022-07-10T08:14:35;101355.88;;;26.92
49785;BMP280;35679;38.732;-121.358;2022-07-10T08:17:25;101357.19;;;26.90
49785;BMP280;35679;38.732;-121.358;2022-07-10T08:20:17;101358.53;;;26.87
49785;BMP280;35679;38.732;-121.358;2022-07-10T08:23:06;101365.03;;;26.86
49785;BMP280;35679;38.732;-121.358;2022-07-10T08:25:57;101362.84;;;26.83
49785;BMP280;35679;38.732;-121.358;2022-07-10T08:28:48;101358.50;;;26.82
49785;BMP280;35679;38.732;-121.358;2022-07-10T08:31:38;101361.69;;;26.79
49785;BMP280;35679;38.732;-121.358;2022-07-10T08:34:29;101361.16;;;26.77
49785;BMP280;35679;38.732;-121.358;2022-07-10T08:37:20;101358.13;;;26.74
49785;BMP280;35679;38.732;-121.358;2022-07-10T08:40:12;101351.88;;;26.73
49785;BMP280;35679;38.732;-121.358;2022-07-10T08:43:05;101368.66;;;26.70
49785;BMP280;35679;38.732;-121.358;2022-07-10T08:45:58;101372.19;;;26.71
49785;BMP280;35679;38.732;-121.358;2022-07-10T08:48:53;101372.97;;;26.66
49785;BMP280;35679;38.732;-121.358;2022-07-10T08:52:13;101364.25;;;26.64
49785;BMP280;35679;38.732;-121.358;2022-07-10T08:55:02;101358.53;;;26.61
49785;BMP280;35679;38.732;-121.358;2022-07-10T08:57:54;101366.94;;;26.59
49785;BMP280;35679;38.732;-121.358;2022-07-10T09:00:45;101358.00;;;26.59
49785;BMP280;35679;38.732;-121.358;2022-07-10T09:03:38;101351.72;;;26.53
49785;BMP280;35679;38.732;-121.358;2022-07-10T09:06:28;101359.81;;;26.53
49785;BMP280;35679;38.732;-121.358;2022-07-10T09:09:20;101352.22;;;26.50
49785;BMP280;35679;38.732;-121.358;2022-07-10T09:12:12;101352.50;;;26.49
49785;BMP280;35679;38.732;-121.358;2022-07-10T09:15:16;101354.38;;;26.48
49785;BMP280;35679;38.732;-121.358;2022-07-10T09:18:07;101354.88;;;26.46
49785;BMP280;35679;38.732;-121.358;2022-07-10T09:20:58;101349.97;;;26.43
49785;BMP280;35679;38.732;-121.358;2022-07-10T09:24:04;101361.88;;;26.42
49785;BMP280;35679;38.732;-121.358;2022-07-10T09:27:01;101354.25;;;26.39
49785;BMP280;35679;38.732;-121.358;2022-07-10T09:29:53;101358.88;;;26.38
49785;BMP280;35679;38.732;-121.358;2022-07-10T09:32:49;101356.41;;;26.37
49785;BMP280;35679;38.732;-121.358;2022-07-10T09:38:57;101352.00;;;26.31
49785;BMP280;35679;38.732;-121.358;2022-07-10T09:41:50;101351.69;;;26.27
49785;BMP280;35679;38.732;-121.358;2022-07-10T09:44:41;101352.16;;;26.24
49785;BMP280;35679;38.732;-121.358;2022-07-10T09:47:31;101351.38;;;26.24
49785;BMP280;35679;38.732;-121.358;2022-07-10T09:50:28;101349.97;;;26.21
49785;BMP280;35679;38.732;-121.358;2022-07-10T09:53:20;101360.00;;;26.21
49785;BMP280;35679;38.732;-121.358;2022-07-10T09:56:13;101354.00;;;26.19
49785;BMP280;35679;38.732;-121.358;2022-07-10T09:59:10;101352.88;;;26.15
49785;BMP280;35679;38.732;-121.358;2022-07-10T10:02:00;101356.66;;;26.14
49785;BMP280;35679;38.732;-121.358;2022-07-10T10:04:52;101349.59;;;26.13
49785;BMP280;35679;38.732;-121.358;2022-07-10T10:07:44;101355.53;;;26.10
49785;BMP280;35679;38.732;-121.358;2022-07-10T10:10:35;101356.88;;;26.07
49785;BMP280;35679;38.732;-121.358;2022-07-10T10:13:27;101360.06;;;26.04
49785;BMP280;35679;38.732;-121.358;2022-07-10T10:16:22;101357.34;;;26.04
49785;BMP280;35679;38.732;-121.358;2022-07-10T10:19:15;101346.78;;;26.03
49785;BMP280;35679;38.732;-121.358;2022-07-10T10:22:40;101354.59;;;25.99
49785;BMP280;35679;38.732;-121.358;2022-07-10T10:25:33;101344.28;;;25.96
49785;BMP280;35679;38.732;-121.358;2022-07-10T10:28:25;101352.66;;;25.95
49785;BMP280;35679;38.732;-121.358;2022-07-10T10:31:16;101347.72;;;25.92
49785;BMP280;35679;38.732;-121.358;2022-07-10T10:34:07;101350.44;;;25.92
49785;BMP280;35679;38.732;-121.358;2022-07-10T10:36:59;101358.00;;;25.90
49785;BMP280;35679;38.732;-121.358;2022-07-10T10:39:57;101350.38;;;25.87
49785;BMP280;35679;38.732;-121.358;2022-07-10T10:42:47;101357.09;;;25.84
49785;BMP280;35679;38.732;-121.358;2022-07-10T10:45:38;101354.66;;;25.83
49785;BMP280;35679;38.732;-121.358;2022-07-10T10:48:28;101355.72;;;25.82
49785;BMP280;35679;38.732;-121.358;2022-07-10T10:52:09;101353.53;;;25.79
49785;BMP280;35679;38.732;-121.358;2022-07-10T10:55:05;101351.88;;;25.78
49785;BMP280;35679;38.732;-121.358;2022-07-10T10:58:17;101352.94;;;25.77
49785;BMP280;35679;38.732;-121.358;2022-07-10T11:01:28;101356.97;;;25.75
49785;BMP280;35679;38.732;-121.358;2022-07-10T11:04:18;101351.00;;;25.73
49785;BMP280;35679;38.732;-121.358;2022-07-10T11:07:09;101361.47;;;25.69
49785;BMP280;35679;38.732;-121.358;2022-07-10T11:10:27;101357.13;;;25.68
49785;BMP280;35679;38.732;-121.358;2022-07-10T11:13:18;101353.34;;;25.31
49785;BMP280;35679;38.732;-121.358;2022-07-10T11:16:15;101349.50;;;24.95
49785;BMP280;35679;38.732;-121.358;2022-07-10T11:19:06;101364.50;;;24.58
49785;BMP280;35679;38.732;-121.358;2022-07-10T11:22:07;101354.28;;;24.32
49785;BMP280;35679;38.732;-121.358;2022-07-10T11:25:45;101361.34;;;23.37
49785;BMP280;35679;38.732;-121.358;2022-07-10T11:28:18;101373.66;;;23.21
49785;BMP280;35679;38.732;-121.358;2022-07-10T11:31:11;101385.06;;;22.94
49785;BMP280;35679;38.732;-121.358;2022-07-10T11:34:03;101379.50;;;22.66
49785;BMP280;35679;38.732;-121.358;2022-07-10T11:36:53;101380.78;;;22.64
49785;BMP280;35679;38.732;-121.358;2022-07-10T11:39:44;101383.56;;;22.57
49785;BMP280;35679;38.732;-121.358;2022-07-10T11:42:52;101387.66;;;22.31
49785;BMP280;35679;38.732;-121.358;2022-07-10T11:45:43;101381.91;;;22.27
49785;BMP280;35679;38.732;-121.358;2022-07-10T11:48:38;101384.94;;;22.13
49785;BMP280;35679;38.732;-121.358;2022-07-10T11:51:31;101392.34;;;21.99
49785;BMP280;35679;38.732;-121.358;2022-07-10T11:54:25;101387.94;;;21.87
49785;BMP280;35679;38.732;-121.358;2022-07-10T11:57:15;101395.88;;;21.82
49785;BMP280;35679;38.732;-121.358;2022-07-10T12:00:06;101389.28;;;21.60
49785;BMP280;35679;38.732;-121.358;2022-07-10T12:03:19;101397.19;;;21.55
49785;BMP280;35679;38.732;-121.358;2022-07-10T12:06:17;101398.94;;;21.43
49785;BMP280;35679;38.732;-121.358;2022-07-10T12:09:13;101397.06;;;21.44
49785;BMP280;35679;38.732;-121.358;2022-07-10T12:12:06;101400.84;;;21.36
49785;BMP280;35679;38.732;-121.358;2022-07-10T12:14:58;101402.00;;;21.22
49785;BMP280;35679;38.732;-121.358;2022-07-10T12:17:52;101390.44;;;21.22
49785;BMP280;35679;38.732;-121.358;2022-07-10T12:20:45;101394.34;;;21.02
49785;BMP280;35679;38.732;-121.358;2022-07-10T12:23:37;101394.44;;;20.89
49785;BMP280;35679;38.732;-121.358;2022-07-10T12:26:39;101400.56;;;20.96
49785;BMP280;35679;38.732;-121.358;2022-07-10T12:29:31;101401.88;;;20.87
49785;BMP280;35679;38.732;-121.358;2022-07-10T12:32:21;101396.78;;;20.79
49785;BMP280;35679;38.732;-121.358;2022-07-10T12:35:14;101404.28;;;20.95
49785;BMP280;35679;38.732;-121.358;2022-07-10T12:38:05;101396.47;;;20.93
49785;BMP280;35679;38.732;-121.358;2022-07-10T12:41:10;101395.47;;;20.88
49785;BMP280;35679;38.732;-121.358;2022-07-10T12:44:00;101400.06;;;20.81
49785;BMP280;35679;38.732;-121.358;2022-07-10T12:47:01;101404.59;;;20.80
49785;BMP280;35679;38.732;-121.358;2022-07-10T12:49:55;101409.84;;;20.62
49785;BMP280;35679;38.732;-121.358;2022-07-10T12:52:49;101417.06;;;20.62
49785;BMP280;35679;38.732;-121.358;2022-07-10T12:55:43;101413.75;;;20.66
49785;BMP280;35679;38.732;-121.358;2022-07-10T12:58:33;101415.63;;;20.66
49785;BMP280;35679;38.732;-121.358;2022-07-10T13:01:26;101415.84;;;20.58
49785;BMP280;35679;38.732;-121.358;2022-07-10T13:04:23;101435.16;;;20.36
49785;BMP280;35679;38.732;-121.358;2022-07-10T13:07:17;101434.41;;;20.16
49785;BMP280;35679;38.732;-121.358;2022-07-10T13:10:08;101441.19;;;20.18
49785;BMP280;35679;38.732;-121.358;2022-07-10T13:13:00;101442.41;;;20.22
49785;BMP280;35679;38.732;-121.358;2022-07-10T13:15:50;101445.53;;;20.13
49785;BMP280;35679;38.732;-121.358;2022-07-10T13:18:43;101444.31;;;20.09
49785;BMP280;35679;38.732;-121.358;2022-07-10T13:21:36;101444.72;;;20.12
49785;BMP280;35679;38.732;-121.358;2022-07-10T13:24:27;101441.00;;;20.13
49785;BMP280;35679;38.732;-121.358;2022-07-10T13:27:19;101439.53;;;20.17
49785;BMP280;35679;38.732;-121.358;2022-07-10T13:30:10;101441.78;;;20.20
49785;BMP280;35679;38.732;-121.358;2022-07-10T13:33:01;101450.25;;;20.17
49785;BMP280;35679;38.732;-121.358;2022-07-10T13:35:52;101442.44;;;20.16
49785;BMP280;35679;38.732;-121.358;2022-07-10T13:38:43;101443.44;;;20.21
49785;BMP280;35679;38.732;-121.358;2022-07-10T13:41:37;101451.28;;;20.16
49785;BMP280;35679;38.732;-121.358;2022-07-10T13:44:27;101442.66;;;20.14
49785;BMP280;35679;38.732;-121.358;2022-07-10T13:47:17;101442.22;;;20.17
49785;BMP280;35679;38.732;-121.358;2022-07-10T13:50:08;101452.94;;;20.17
49785;BMP280;35679;38.732;-121.358;2022-07-10T13:53:00;101455.41;;;20.19
49785;BMP280;35679;38.732;-121.358;2022-07-10T13:55:50;101464.72;;;20.10
49785;BMP280;35679;38.732;-121.358;2022-07-10T13:58:41;101466.56;;;20.16
49785;BMP280;35679;38.732;-121.358;2022-07-10T14:01:37;101462.19;;;20.21
49785;BMP280;35679;38.732;-121.358;2022-07-10T14:04:32;101465.06;;;20.26
49785;BMP280;35679;38.732;-121.358;2022-07-10T14:07:24;101465.69;;;20.28
49785;BMP280;35679;38.732;-121.358;2022-07-10T14:10:21;101467.53;;;20.34
49785;BMP280;35679;38.732;-121.358;2022-07-10T14:13:12;101462.75;;;20.36
49785;BMP280;35679;38.732;-121.358;2022-07-10T14:16:03;101457.22;;;20.38
49785;BMP280;35679;38.732;-121.358;2022-07-10T14:18:53;101465.22;;;20.44
49785;BMP280;35679;38.732;-121.358;2022-07-10T14:21:45;101470.38;;;20.45
49785;BMP280;35679;38.732;-121.358;2022-07-10T14:24:36;101466.44;;;20.48
49785;BMP280;35679;38.732;-121.358;2022-07-10T14:27:28;101463.13;;;20.52
49785;BMP280;35679;38.732;-121.358;2022-07-10T14:30:20;101463.09;;;20.59
49785;BMP280;35679;38.732;-121.358;2022-07-10T14:33:11;101461.03;;;20.61
49785;BMP280;35679;38.732;-121.358;2022-07-10T14:36:03;101474.59;;;20.66
49785;BMP280;35679;38.732;-121.358;2022-07-10T14:38:55;101473.94;;;20.70
49785;BMP280;35679;38.732;-121.358;2022-07-10T14:41:45;101468.78;;;20.75
49785;BMP280;35679;38.732;-121.358;2022-07-10T14:44:36;101471.69;;;20.74
49785;BMP280;35679;38.732;-121.358;2022-07-10T14:47:27;101471.66;;;20.80
49785;BMP280;35679;38.732;-121.358;2022-07-10T14:50:19;101474.91;;;20.89
49785;BMP280;35679;38.732;-121.358;2022-07-10T14:53:09;101470.00;;;20.86
49785;BMP280;35679;38.732;-121.358;2022-07-10T14:56:04;101478.59;;;20.94
49785;BMP280;35679;38.732;-121.358;2022-07-10T14:58:55;101470.13;;;20.97
49785;BMP280;35679;38.732;-121.358;2022-07-10T15:02:02;101475.66;;;21.02
49785;BMP280;35679;38.732;-121.358;2022-07-10T15:04:53;101482.84;;;21.08
49785;BMP280;35679;38.732;-121.358;2022-07-10T15:07:43;101478.47;;;21.13
49785;BMP280;35679;38.732;-121.358;2022-07-10T15:10:34;101482.66;;;21.34
49785;BMP280;35679;38.732;-121.358;2022-07-10T15:13:24;101477.75;;;21.55
49785;BMP280;35679;38.732;-121.358;2022-07-10T15:16:16;101479.88;;;21.71
49785;BMP280;35679;38.732;-121.358;2022-07-10T15:19:06;101475.44;;;21.83
49785;BMP280;35679;38.732;-121.358;2022-07-10T15:21:59;101474.09;;;21.92
49785;BMP280;35679;38.732;-121.358;2022-07-10T15:24:50;101474.41;;;22.02
49785;BMP280;35679;38.732;-121.358;2022-07-10T15:27:40;101472.25;;;22.10
49785;BMP280;35679;38.732;-121.358;2022-07-10T15:30:34;101470.06;;;22.19
49785;BMP280;35679;38.732;-121.358;2022-07-10T15:33:28;101465.47;;;22.26
49785;BMP280;35679;38.732;-121.358;2022-07-10T15:36:19;101470.31;;;22.35
49785;BMP280;35679;38.732;-121.358;2022-07-10T15:39:11;101474.94;;;22.46
49785;BMP280;35679;38.732;-121.358;2022-07-10T15:42:02;101469.84;;;22.56
49785;BMP280;35679;38.732;-121.358;2022-07-10T15:44:52;101466.50;;;22.60